Time;durP1;ratioP1;P1;durP2;ratioP2;P2;SDS_P1;SDS_P2;PMS_P1;PMS_P2;Temp;Humidity;BMP_temperature;BMP_pressure;BME280_temperature;BME280_humidity;BME280_pressure;Samples;Min_cycle;Max_cycle;Signal;HPM_P1;HPM_P2
2022/06/01 00:00:42;;;;;;;0.10;0.10;;;;;;;;;;5034399;28;20033;-73
2022/06/01 00:03:07;;;;;;;0.20;0.20;;;;;;;;;;5052297;28;20044;-73
2022/06/01 00:05:33;;;;;;;0.20;0.20;;;;;;;;;;5034622;28;20104;-72
2022/06/01 00:07:58;;;;;;;0.20;0.20;;;;;;;;;;5052272;28;20037;-73
2022/06/01 00:10:24;;;;;;;0.10;0.10;;;;;;;;;;5052057;28;20039;-73
2022/06/01 00:12:49;;;;;;;0.10;0.10;;;;;;;;;;5051634;28;20468;-73
2022/06/01 00:15:16;;;;;;;0.20;0.20;;;;;;;;;;5034633;28;20029;-73
2022/06/01 00:17:41;;;;;;;0.20;0.20;;;;;;;;;;5052260;28;20036;-73
2022/06/01 00:20:07;;;;;;;0.10;0.10;;;;;;;;;;5052266;28;20035;-73
2022/06/01 00:22:32;;;;;;;0.10;0.10;;;;;;;;;;5052161;28;20043;-73
2022/06/01 00:24:58;;;;;;;0.10;0.10;;;;;;;;;;5033229;28;20603;-72
2022/06/01 00:27:24;;;;;;;0.75;0.60;;;;;;;;;;5034338;28;20075;-73
2022/06/01 00:29:49;;;;;;;0.30;0.28;;;;;;;;;;5052195;28;20117;-72
2022/06/01 00:32:15;;;;;;;0.20;0.20;;;;;;;;;;5051965;28;20030;-72
2022/06/01 00:34:40;;;;;;;0.20;0.20;;;;;;;;;;5034033;28;20037;-72
2022/06/01 00:37:08;;;;;;;0.20;0.20;;;;;;;;;;5034179;28;20454;-72
2022/06/01 00:39:34;;;;;;;0.40;0.40;;;;;;;;;;5034117;28;20035;-73
2022/06/01 00:42:28;;;;;;;0.10;0.10;;;;;;;;;;5051835;28;20108;-72
2022/06/01 00:44:54;;;;;;;0.10;0.10;;;;;;;;;;5037895;28;20053;-73
2022/06/01 00:47:20;;;;;;;0.10;0.10;;;;;;;;;;5051459;28;20399;-74
2022/06/01 00:49:58;;;;;;;0.10;0.10;;;;;;;;;;5052062;28;20384;-74
2022/06/01 00:52:38;;;;;;;0.20;0.20;;;;;;;;;;5051608;28;20044;-73
2022/06/01 00:55:17;;;;;;;0.10;0.10;;;;;;;;;;5049789;28;20048;-73
2022/06/01 00:57:43;;;;;;;;;;;;;;;;;;5052253;28;20033;-73
2022/06/01 01:00:11;;;;;;;0.10;0.10;;;;;;;;;;5051721;28;19913;-73
2022/06/01 01:02:37;;;;;;;0.20;0.20;;;;;;;;;;5051548;28;20266;-73
2022/06/01 01:05:04;;;;;;;0.20;0.20;;;;;;;;;;5034106;28;20037;-73
2022/06/01 01:07:30;;;;;;;0.20;0.20;;;;;;;;;;5051716;28;20460;-73
2022/06/01 01:09:55;;;;;;;0.30;0.30;;;;;;;;;;5051211;28;20112;-73
2022/06/01 01:12:21;;;;;;;0.20;0.20;;;;;;;;;;5051476;28;20032;-73
2022/06/01 01:14:46;;;;;;;0.20;0.20;;;;;;;;;;5036946;28;20072;-73
2022/06/01 01:17:12;;;;;;;0.20;0.20;;;;;;;;;;5036976;28;20036;-73
2022/06/01 01:19:42;;;;;;;0.20;0.20;;;;;;;;;;5054972;28;20456;-73
2022/06/01 01:22:10;;;;;;;0.20;0.20;;;;;;;;;;5053405;28;20032;-74
2022/06/01 01:24:54;;;;;;;0.20;0.20;;;;;;;;;;5034927;28;20503;-72
2022/06/01 01:27:20;;;;;;;0.13;0.13;;;;;;;;;;5054914;28;20041;-72
2022/06/01 01:29:45;;;;;;;0.20;0.20;;;;;;;;;;5036931;28;20447;-72
2022/06/01 01:32:12;;;;;;;0.20;0.20;;;;;;;;;;5037177;28;20094;-73
2022/06/01 01:34:39;;;;;;;0.15;0.15;;;;;;;;;;5054861;28;20039;-73
2022/06/01 01:37:07;;;;;;;0.20;0.20;;;;;;;;;;5054740;28;20037;-73
2022/06/01 01:39:34;;;;;;;0.13;0.13;;;;;;;;;;5054730;28;20029;-73
2022/06/01 01:42:00;;;;;;;0.20;0.20;;;;;;;;;;5053405;28;20090;-73
2022/06/01 01:44:28;;;;;;;0.30;0.30;;;;;;;;;;5054350;28;20033;-73
2022/06/01 01:46:56;;;;;;;0.10;0.10;;;;;;;;;;5054649;28;20044;-73
2022/06/01 01:49:23;;;;;;;0.20;0.20;;;;;;;;;;5054759;28;20025;-74
2022/06/01 01:51:50;;;;;;;0.20;0.20;;;;;;;;;;5053543;28;20036;-73
2022/06/01 01:54:45;;;;;;;0.20;0.20;;;;;;;;;;5054483;28;20384;-74
2022/06/01 01:57:18;;;;;;;0.17;0.17;;;;;;;;;;5014741;28;20060;-73
2022/06/01 01:59:43;;;;;;;0.20;0.20;;;;;;;;;;5054453;28;20029;-74
2022/06/01 02:02:28;;;;;;;0.20;0.20;;;;;;;;;;5036669;28;20436;-73
2022/06/01 02:08:00;;;;;;;0.10;0.10;;;;;;;;;;5054325;28;20037;-74
2022/06/01 02:13:12;;;;;;;0.20;0.20;;;;;;;;;;5032495;28;20037;-73
2022/06/01 02:15:40;;;;;;;0.20;0.20;;;;;;;;;;5034187;28;20037;-74
2022/06/01 02:18:09;;;;;;;0.20;0.20;;;;;;;;;;5034252;28;20033;-74
2022/06/01 02:20:41;;;;;;;0.13;0.13;;;;;;;;;;5034391;28;20033;-73
2022/06/01 02:23:11;;;;;;;0.20;0.20;;;;;;;;;;5036322;28;20033;-72
2022/06/01 02:25:37;;;;;;;0.20;0.20;;;;;;;;;;5052815;28;20492;-73
2022/06/01 02:28:03;;;;;;;0.25;0.25;;;;;;;;;;5053996;28;20389;-73
2022/06/01 02:30:33;;;;;;;2.58;2.38;;;;;;;;;;5053830;28;20033;-73
2022/06/01 02:32:58;;;;;;;;;;;;;;;;;;5054456;28;20025;-72
2022/06/01 02:35:24;;;;;;;0.20;0.20;;;;;;;;;;5053974;28;19958;-73
2022/06/01 02:37:51;;;;;;;0.10;0.10;;;;;;;;;;5053757;28;20468;-73
2022/06/01 02:40:18;;;;;;;0.20;0.20;;;;;;;;;;5035224;28;20048;-73
2022/06/01 02:42:44;;;;;;;0.10;0.10;;;;;;;;;;5053590;28;20165;-73
2022/06/01 02:45:10;;;;;;;0.10;0.10;;;;;;;;;;5053450;28;20037;-73
2022/06/01 02:47:37;;;;;;;0.10;0.10;;;;;;;;;;5053872;28;20079;-72
2022/06/01 02:50:04;;;;;;;0.20;0.20;;;;;;;;;;5053824;28;20064;-73
2022/06/01 02:52:30;;;;;;;0.20;0.20;;;;;;;;;;5019470;28;20037;-74
2022/06/01 02:54:55;;;;;;;0.13;0.13;;;;;;;;;;5053658;28;20025;-74
2022/06/01 02:57:21;;;;;;;0.10;0.10;;;;;;;;;;5053584;28;20433;-73
2022/06/01 02:59:47;;;;;;;0.20;0.20;;;;;;;;;;5035002;28;20136;-73
2022/06/01 03:02:12;;;;;;;0.20;0.20;;;;;;;;;;5051592;28;20032;-72
2022/06/01 03:04:39;;;;;;;0.25;0.25;;;;;;;;;;5049161;28;20047;-73
2022/06/01 03:07:04;;;;;;;0.20;0.20;;;;;;;;;;5049623;28;20036;-73
2022/06/01 03:09:30;;;;;;;0.20;0.20;;;;;;;;;;5049294;28;20037;-73
2022/06/01 03:11:56;;;;;;;0.15;0.15;;;;;;;;;;5049013;28;20033;-74
2022/06/01 03:14:21;;;;;;;0.10;0.10;;;;;;;;;;5028335;28;20036;-73
2022/06/01 03:16:46;;;;;;;0.20;0.20;;;;;;;;;;4997225;28;20034;-73
2022/06/01 03:19:12;;;;;;;0.13;0.13;;;;;;;;;;5012319;28;20103;-72
2022/06/01 03:21:37;;;;;;;0.20;0.20;;;;;;;;;;5029580;28;20477;-72
2022/06/01 03:24:05;;;;;;;0.20;0.20;;;;;;;;;;5029188;28;20472;-74
2022/06/01 03:26:30;;;;;;;0.10;0.10;;;;;;;;;;5046992;28;20039;-74
2022/06/01 03:28:55;;;;;;;0.10;0.10;;;;;;;;;;5048783;28;20124;-73
2022/06/01 03:31:21;;;;;;;0.20;0.20;;;;;;;;;;5049089;28;20037;-73
2022/06/01 03:33:46;;;;;;;0.13;0.13;;;;;;;;;;5048032;28;20079;-73
2022/06/01 03:36:12;;;;;;;0.10;0.10;;;;;;;;;;5048447;28;20052;-72
2022/06/01 03:38:37;;;;;;;0.10;0.10;;;;;;;;;;5048644;28;20040;-73
2022/06/01 03:41:03;;;;;;;0.20;0.20;;;;;;;;;;5047982;28;20037;-73
2022/06/01 03:43:28;;;;;;;0.10;0.10;;;;;;;;;;5048809;28;20071;-72
2022/06/01 03:45:57;;;;;;;0.10;0.10;;;;;;;;;;5048782;28;20530;-73
2022/06/01 03:48:24;;;;;;;0.20;0.20;;;;;;;;;;5047755;28;20534;-73
2022/06/01 03:50:49;;;;;;;0.20;0.20;;;;;;;;;;5048864;28;20043;-72
2022/06/01 03:53:15;;;;;;;0.20;0.20;;;;;;;;;;5030867;28;20131;-73
2022/06/01 03:55:41;;;;;;;0.20;0.20;;;;;;;;;;5048712;28;20479;-73
2022/06/01 03:58:11;;;;;;;0.10;0.10;;;;;;;;;;5048141;28;20590;-73
2022/06/01 04:00:36;;;;;;;;;;;;;;;;;;5048494;28;20060;-73
2022/06/01 04:03:01;;;;;;;0.10;0.10;;;;;;;;;;5048451;28;20394;-73
2022/06/01 04:05:27;;;;;;;0.10;0.10;;;;;;;;;;5048774;28;20029;-73
2022/06/01 04:07:52;;;;;;;0.20;0.20;;;;;;;;;;5048539;28;20069;-73
2022/06/01 04:10:20;;;;;;;0.20;0.20;;;;;;;;;;5047312;28;20056;-73
2022/06/01 04:12:45;;;;;;;0.17;0.17;;;;;;;;;;5048350;28;20025;-73
2022/06/01 04:15:10;;;;;;;0.20;0.20;;;;;;;;;;5030786;28;20047;-72
2022/06/01 04:17:36;;;;;;;0.20;0.20;;;;;;;;;;5030828;28;20035;-72
2022/06/01 04:20:02;;;;;;;0.17;0.17;;;;;;;;;;5047053;28;20066;-73
2022/06/01 04:22:27;;;;;;;0.20;0.20;;;;;;;;;;5048326;28;20077;-73
2022/06/01 04:24:53;;;;;;;0.15;0.15;;;;;;;;;;5047725;28;20024;-73
2022/06/01 04:27:18;;;;;;;0.10;0.10;;;;;;;;;;5047509;28;20033;-73
2022/06/01 04:29:44;;;;;;;0.17;0.17;;;;;;;;;;5030941;28;20487;-73
2022/06/01 04:32:12;;;;;;;0.10;0.10;;;;;;;;;;5048110;28;20055;-73
2022/06/01 04:34:37;;;;;;;0.20;0.20;;;;;;;;;;5048480;28;20047;-73
2022/06/01 04:37:03;;;;;;;0.13;0.13;;;;;;;;;;5048171;28;20116;-73
2022/06/01 04:39:29;;;;;;;0.10;0.10;;;;;;;;;;5046608;28;20033;-73
2022/06/01 04:41:55;;;;;;;0.10;0.10;;;;;;;;;;5030552;28;20116;-73
2022/06/01 04:44:20;;;;;;;0.10;0.10;;;;;;;;;;5046367;28;20044;-73
2022/06/01 04:46:46;;;;;;;0.15;0.15;;;;;;;;;;5029775;28;20499;-73
2022/06/01 04:49:12;;;;;;;0.10;0.10;;;;;;;;;;5049833;28;20549;-73
2022/06/01 04:51:38;;;;;;;0.10;0.10;;;;;;;;;;5051566;28;20044;-73
2022/06/01 04:54:03;;;;;;;1.20;1.10;;;;;;;;;;5051118;28;20445;-72
2022/06/01 04:56:29;;;;;;;0.10;0.10;;;;;;;;;;5051389;28;20021;-73
2022/06/01 04:58:55;;;;;;;0.20;0.20;;;;;;;;;;5050801;28;20040;-73
2022/06/01 05:01:21;;;;;;;0.30;0.30;;;;;;;;;;5032344;28;20079;-73
2022/06/01 05:03:46;;;;;;;0.20;0.20;;;;;;;;;;5050983;28;20053;-73
2022/06/01 05:06:12;;;;;;;0.20;0.20;;;;;;;;;;5051136;28;20037;-74
2022/06/01 05:08:38;;;;;;;0.30;0.30;;;;;;;;;;5051323;28;20029;-74
2022/06/01 05:11:03;;;;;;;0.45;0.45;;;;;;;;;;5050862;28;20090;-74
2022/06/01 05:13:29;;;;;;;0.40;0.40;;;;;;;;;;5050528;28;20091;-73
2022/06/01 05:15:56;;;;;;;0.20;0.20;;;;;;;;;;5051368;28;20430;-73
2022/06/01 05:18:22;;;;;;;0.20;0.20;;;;;;;;;;5033372;28;20025;-74
2022/06/01 05:20:49;;;;;;;0.20;0.20;;;;;;;;;;5049898;28;20033;-74
2022/06/01 05:23:17;;;;;;;0.10;0.10;;;;;;;;;;5026488;28;20040;-74
2022/06/01 05:25:44;;;;;;;0.10;0.10;;;;;;;;;;5032052;28;20544;-73
2022/06/01 05:28:09;;;;;;;0.20;0.20;;;;;;;;;;5030841;28;20057;-72
2022/06/01 05:30:35;;;;;;;0.20;0.20;;;;;;;;;;5052749;28;20126;-72
2022/06/01 05:33:00;;;;;;;0.20;0.20;;;;;;;;;;5045015;28;20033;-72
2022/06/01 05:35:27;;;;;;;0.10;0.10;;;;;;;;;;5051140;28;20044;-72
2022/06/01 05:37:52;;;;;;;0.20;0.20;;;;;;;;;;5049500;28;20272;-72
2022/06/01 05:40:17;;;;;;;0.20;0.20;;;;;;;;;;5044801;28;20397;-73
2022/06/01 05:42:43;;;;;;;0.10;0.10;;;;;;;;;;5050545;28;20366;-73
2022/06/01 05:45:09;;;;;;;0.20;0.20;;;;;;;;;;5041292;28;20103;-73
2022/06/01 05:47:36;;;;;;;0.20;0.20;;;;;;;;;;5042170;28;20762;-73
2022/06/01 05:50:01;;;;;;;0.22;0.22;;;;;;;;;;5050912;28;20043;-74
2022/06/01 05:52:27;;;;;;;0.30;0.30;;;;;;;;;;5049633;28;20109;-73
2022/06/01 05:54:52;;;;;;;0.20;0.20;;;;;;;;;;5032137;28;20075;-73
2022/06/01 05:57:17;;;;;;;0.10;0.10;;;;;;;;;;5050100;28;20032;-72
2022/06/01 05:59:43;;;;;;;0.10;0.10;;;;;;;;;;5050183;28;20029;-72
2022/06/01 06:02:09;;;;;;;0.20;0.20;;;;;;;;;;5025997;28;20061;-73
2022/06/01 06:04:34;;;;;;;0.20;0.20;;;;;;;;;;5030784;28;20064;-73
2022/06/01 06:07:01;;;;;;;0.10;0.10;;;;;;;;;;5030688;28;20484;-73
2022/06/01 06:09:27;;;;;;;0.20;0.20;;;;;;;;;;5030502;28;20032;-74
2022/06/01 06:11:53;;;;;;;0.38;0.38;;;;;;;;;;5030314;28;20037;-73
2022/06/01 06:14:19;;;;;;;0.20;0.20;;;;;;;;;;5030314;28;20064;-74
2022/06/01 06:16:45;;;;;;;0.20;0.20;;;;;;;;;;5031032;28;20061;-73
2022/06/01 06:19:11;;;;;;;0.20;0.20;;;;;;;;;;5030598;28;20037;-72
2022/06/01 06:21:37;;;;;;;0.20;0.20;;;;;;;;;;5028927;28;20496;-74
2022/06/01 06:24:05;;;;;;;0.20;0.20;;;;;;;;;;5028675;28;20029;-72
2022/06/01 06:26:30;;;;;;;1.15;0.65;;;;;;;;;;5029993;28;20132;-73
2022/06/01 06:28:56;;;;;;;0.22;0.22;;;;;;;;;;5030537;28;20037;-72
2022/06/01 06:31:22;;;;;;;0.28;0.28;;;;;;;;;;5028889;28;20045;-72
2022/06/01 06:33:48;;;;;;;0.25;0.25;;;;;;;;;;5034403;28;20017;-73
2022/06/01 06:36:14;;;;;;;0.20;0.20;;;;;;;;;;5023223;28;20048;-72
2022/06/01 06:38:40;;;;;;;0.57;0.45;;;;;;;;;;5050314;28;20032;-72
2022/06/01 06:41:16;;;;;;;0.20;0.20;;;;;;;;;;5049735;28;20040;-73
2022/06/01 06:43:52;;;;;;;0.20;0.20;;;;;;;;;;5014602;28;20052;-73
2022/06/01 06:49:33;;;;;;;0.20;0.20;;;;;;;;;;5048591;28;20041;-73
2022/06/01 06:51:58;;;;;;;0.20;0.20;;;;;;;;;;5048762;28;20035;-73
2022/06/01 06:54:24;;;;;;;0.20;0.20;;;;;;;;;;5049705;28;20032;-73
2022/06/01 06:56:49;;;;;;;0.20;0.20;;;;;;;;;;5027270;28;20037;-73
2022/06/01 06:59:16;;;;;;;0.20;0.20;;;;;;;;;;5042327;28;20464;-74
2022/06/01 07:01:42;;;;;;;0.20;0.20;;;;;;;;;;5047729;28;20028;-74
2022/06/01 07:04:08;;;;;;;0.20;0.20;;;;;;;;;;5049305;28;20132;-73
2022/06/01 07:06:33;;;;;;;0.20;0.20;;;;;;;;;;5031409;28;20116;-73
2022/06/01 07:09:00;;;;;;;0.17;0.17;;;;;;;;;;5048788;28;20068;-72
2022/06/01 07:11:28;;;;;;;0.60;0.60;;;;;;;;;;5024263;28;20037;-73
2022/06/01 07:13:54;;;;;;;0.20;0.20;;;;;;;;;;5030971;28;20033;-73
2022/06/01 07:16:21;;;;;;;2.35;1.02;;;;;;;;;;5011742;28;20041;-73
2022/06/01 07:18:48;;;;;;;0.20;0.20;;;;;;;;;;5028852;28;20060;-73
2022/06/01 07:21:16;;;;;;;0.40;0.40;;;;;;;;;;5028137;28;20663;-73
2022/06/01 07:23:42;;;;;;;0.32;0.32;;;;;;;;;;5028522;28;20040;-73
2022/06/01 07:26:09;;;;;;;0.20;0.20;;;;;;;;;;5040277;28;20388;-73
2022/06/01 07:28:35;;;;;;;0.20;0.20;;;;;;;;;;5044713;28;20544;-73
2022/06/01 07:31:00;;;;;;;0.40;0.40;;;;;;;;;;5038074;28;20087;-73
2022/06/01 07:33:28;;;;;;;0.20;0.20;;;;;;;;;;5048420;28;20029;-71
2022/06/01 07:35:54;;;;;;;0.30;0.30;;;;;;;;;;5031391;28;20567;-73
2022/06/01 07:43:48;;;;;;;0.80;0.65;;;;;;;;;;5048854;28;20393;-73
2022/06/01 07:46:13;;;;;;;0.20;0.20;;;;;;;;;;5048211;28;20039;-73
2022/06/01 07:48:39;;;;;;;0.20;0.20;;;;;;;;;;5049084;28;20032;-73
2022/06/01 07:51:05;;;;;;;0.20;0.20;;;;;;;;;;5047663;28;21480;-73
2022/06/01 07:53:30;;;;;;;1.52;0.77;;;;;;;;;;5048432;28;20236;-74
2022/06/01 07:55:56;;;;;;;0.20;0.20;;;;;;;;;;5047707;28;20388;-73
2022/06/01 07:58:21;;;;;;;0.20;0.20;;;;;;;;;;5021889;28;20438;-73
2022/06/01 08:00:48;;;;;;;0.20;0.20;;;;;;;;;;5029039;28;20037;-72
2022/06/01 08:03:15;;;;;;;9.10;8.38;;;;;;;;;;5028879;28;20076;-72
2022/06/01 08:05:41;;;;;;;1.17;0.95;;;;;;;;;;5028748;28;20041;-73
2022/06/01 08:08:06;;;;;;;5.25;0.70;;;;;;;;;;5028605;28;20078;-72
2022/06/01 08:10:32;;;;;;;0.40;0.40;;;;;;;;;;5028714;28;20096;-73
2022/06/01 08:13:07;;;;;;;0.20;0.20;;;;;;;;;;5011301;28;20090;-73
2022/06/01 08:15:33;;;;;;;0.22;0.22;;;;;;;;;;5027599;28;20041;-74
2022/06/01 08:17:59;;;;;;;0.20;0.20;;;;;;;;;;5029237;28;20026;-73
2022/06/01 08:20:25;;;;;;;0.20;0.20;;;;;;;;;;5028855;28;20400;-72
2022/06/01 08:22:51;;;;;;;0.30;0.30;;;;;;;;;;5028387;28;20052;-72
2022/06/01 08:25:17;;;;;;;0.60;0.60;;;;;;;;;;5027229;28;20049;-73
2022/06/01 08:27:46;;;;;;;0.20;0.20;;;;;;;;;;5010796;28;20465;-72
2022/06/01 08:30:12;;;;;;;0.20;0.20;;;;;;;;;;5028400;28;20485;-72
2022/06/01 08:32:38;;;;;;;0.20;0.20;;;;;;;;;;5028611;28;20046;-73
2022/06/01 08:35:05;;;;;;;0.40;0.40;;;;;;;;;;5011209;28;20034;-72
2022/06/01 08:37:30;;;;;;;3.72;0.70;;;;;;;;;;5047913;28;20037;-73
2022/06/01 08:39:56;;;;;;;0.95;0.93;;;;;;;;;;5048700;28;20503;-72
2022/06/01 08:42:23;;;;;;;0.40;0.40;;;;;;;;;;5048379;28;20071;-72
2022/06/01 08:44:50;;;;;;;0.43;0.40;;;;;;;;;;5048395;28;20043;-75
2022/06/01 08:47:19;;;;;;;0.30;0.30;;;;;;;;;;5047448;28;20027;-74
2022/06/01 08:49:45;;;;;;;1.02;1.02;;;;;;;;;;5046119;28;20472;-74
2022/06/01 08:52:11;;;;;;;0.40;0.40;;;;;;;;;;5047119;28;20029;-73
2022/06/01 08:54:37;;;;;;;0.38;0.38;;;;;;;;;;5029608;28;20121;-73
2022/06/01 08:57:05;;;;;;;0.77;0.43;;;;;;;;;;5044510;28;20534;-74
2022/06/01 08:59:49;;;;;;;3.27;1.07;;;;;;;;;;5043038;28;20032;-72
2022/06/01 09:02:34;;;;;;;2.00;1.80;;;;;;;;;;5047750;28;20387;-74
2022/06/01 09:05:11;;;;;;;4.22;2.72;;;;;;;;;;5046332;28;20043;-72
2022/06/01 09:07:43;;;;;;;0.25;0.25;;;;;;;;;;5040538;28;20037;-74
2022/06/01 09:10:15;;;;;;;0.30;0.30;;;;;;;;;;5045012;28;20060;-73
2022/06/01 09:12:41;;;;;;;1.75;1.17;;;;;;;;;;5041172;28;20021;-73
2022/06/01 09:15:21;;;;;;;1.35;1.25;;;;;;;;;;5044648;28;20021;-73
2022/06/01 09:17:47;;;;;;;0.30;0.30;;;;;;;;;;5042685;28;20021;-74
2022/06/01 09:23:00;;;;;;;0.50;0.50;;;;;;;;;;5056082;28;20032;-72
2022/06/01 09:25:27;;;;;;;0.30;0.30;;;;;;;;;;5067348;28;20089;-72
2022/06/01 09:27:54;;;;;;;0.47;0.35;;;;;;;;;;5067378;28;20100;-73
2022/06/01 09:30:38;;;;;;;32.33;2.95;;;;;;;;;;5040932;28;20036;-74
2022/06/01 09:33:22;;;;;;;0.30;0.30;;;;;;;;;;5036332;28;20025;-73
2022/06/01 09:35:57;;;;;;;0.30;0.30;;;;;;;;;;5030728;28;20034;-73
2022/06/01 09:38:41;;;;;;;0.50;0.50;;;;;;;;;;5030839;28;20025;-73
2022/06/01 09:41:08;;;;;;;0.43;0.43;;;;;;;;;;5030783;28;20491;-73
2022/06/01 09:43:34;;;;;;;3.60;1.60;;;;;;;;;;5030778;28;20424;-73
2022/06/01 09:46:00;;;;;;;0.50;0.50;;;;;;;;;;5030646;28;20041;-72
2022/06/01 09:48:30;;;;;;;0.30;0.30;;;;;;;;;;5031010;28;20025;-74
2022/06/01 09:50:59;;;;;;;0.68;0.68;;;;;;;;;;5030777;28;20041;-72
2022/06/01 09:53:29;;;;;;;0.85;0.60;;;;;;;;;;5030904;28;20030;-73
2022/06/01 09:55:59;;;;;;;0.40;0.40;;;;;;;;;;5030607;28;20042;-72
2022/06/01 10:07:18;;;;;;;2.38;1.27;;;;;;;;;;5035125;28;20045;-74
2022/06/01 10:09:53;;;;;;;1.35;1.08;;;;;;;;;;5043221;28;20075;-73
2022/06/01 10:12:35;;;;;;;1.02;0.70;;;;;;;;;;5050667;28;20037;-72
2022/06/01 10:15:01;;;;;;;1.25;0.57;;;;;;;;;;5050886;28;20047;-72
2022/06/01 10:17:33;;;;;;;1.38;0.85;;;;;;;;;;5050144;28;20048;-72
2022/06/01 10:19:59;;;;;;;1.50;0.75;;;;;;;;;;5050417;28;20035;-73
2022/06/01 10:22:36;;;;;;;1.55;0.65;;;;;;;;;;5037867;28;20112;-74
2022/06/01 10:25:08;;;;;;;2.58;1.45;;;;;;;;;;5049628;28;20044;-73
2022/06/01 10:27:55;;;;;;;2.03;0.75;;;;;;;;;;5049675;28;20107;-72
2022/06/01 10:30:24;;;;;;;4.07;1.58;;;;;;;;;;5048194;28;20121;-72
2022/06/01 10:32:50;;;;;;;;;;;;;;;;;;5030782;28;20038;-71
2022/06/01 10:35:28;;;;;;;7.63;1.38;;;;;;;;;;5039134;28;20013;-72
2022/06/01 12:56:46;;;;;;;1.65;0.65;;;;;;;;;;5027825;28;20037;-71
2022/06/01 12:59:15;;;;;;;0.90;0.50;;;;;;;;;;5038709;28;20144;-72
2022/06/01 13:01:41;;;;;;;0.95;0.63;;;;;;;;;;5042707;28;20033;-72
2022/06/01 13:04:06;;;;;;;3.00;2.50;;;;;;;;;;5036403;28;20041;-74
2022/06/01 13:06:33;;;;;;;1.05;0.95;;;;;;;;;;5038478;28;20396;-72
2022/06/01 13:09:01;;;;;;;0.45;0.45;;;;;;;;;;5028567;28;20132;-72
2022/06/01 13:11:30;;;;;;;1.23;1.05;;;;;;;;;;5031166;28;20041;-73
2022/06/01 13:13:57;;;;;;;0.43;0.35;;;;;;;;;;5030786;28;20029;-72
2022/06/01 13:16:32;;;;;;;0.60;0.55;;;;;;;;;;5029970;28;20026;-74
2022/06/01 13:18:57;;;;;;;0.65;0.52;;;;;;;;;;5031392;28;20041;-73
2022/06/01 13:21:33;;;;;;;0.80;0.47;;;;;;;;;;5049587;28;20029;-74
2022/06/01 13:23:59;;;;;;;1.60;1.50;;;;;;;;;;5029132;28;20115;-73
2022/06/01 13:26:24;;;;;;;1.05;0.95;;;;;;;;;;5039616;28;20170;-76
2022/06/01 13:28:49;;;;;;;0.75;0.75;;;;;;;;;;5044391;28;20060;-77
2022/06/01 13:31:15;;;;;;;3.03;0.73;;;;;;;;;;5050631;28;20033;-74
2022/06/01 13:33:44;;;;;;;3.55;1.73;;;;;;;;;;5051019;28;20707;-74
2022/06/01 13:36:09;;;;;;;;;;;;;;;;;;5051035;28;20115;-75
2022/06/01 13:38:41;;;;;;;0.80;0.67;;;;;;;;;;5044703;28;20119;-74
2022/06/01 13:41:23;;;;;;;1.02;0.73;;;;;;;;;;5037277;28;20042;-76
2022/06/01 13:43:49;;;;;;;1.55;0.70;;;;;;;;;;5013075;28;20064;-72
2022/06/01 13:46:27;;;;;;;2.58;0.68;;;;;;;;;;5030474;28;20033;-73
2022/06/01 13:48:55;;;;;;;2.80;1.25;;;;;;;;;;5030850;28;20061;-75
2022/06/01 13:51:39;;;;;;;0.40;0.40;;;;;;;;;;5033549;28;20057;-76
2022/06/01 13:54:20;;;;;;;4.15;3.92;;;;;;;;;;5050605;28;20036;-77
2022/06/01 13:56:45;;;;;;;0.28;0.28;;;;;;;;;;5050933;28;20098;-76
2022/06/01 13:59:26;;;;;;;3.10;1.15;;;;;;;;;;5050486;28;20580;-75
2022/06/01 14:01:57;;;;;;;2.45;0.73;;;;;;;;;;5048829;28;20490;-75
2022/06/01 14:04:34;;;;;;;1.15;0.88;;;;;;;;;;5049905;28;20028;-75
2022/06/01 14:07:19;;;;;;;2.60;0.60;;;;;;;;;;5050000;28;20464;-76
2022/06/01 14:09:58;;;;;;;0.98;0.50;;;;;;;;;;5047968;28;20041;-79
2022/06/01 14:12:23;;;;;;;3.38;1.20;;;;;;;;;;5046784;28;20521;-78
2022/06/01 14:14:50;;;;;;;0.82;0.65;;;;;;;;;;5032290;28;20511;-77
2022/06/01 14:17:16;;;;;;;1.40;0.68;;;;;;;;;;5049073;28;20047;-78
2022/06/01 14:19:42;;;;;;;1.75;0.80;;;;;;;;;;5048515;28;20377;-80
2022/06/01 14:22:08;;;;;;;8.52;3.72;;;;;;;;;;5049011;28;20056;-78
2022/06/01 14:30:02;;;;;;;2.25;0.80;;;;;;;;;;5049471;28;20041;-77
2022/06/01 14:32:28;;;;;;;1.63;0.70;;;;;;;;;;5050120;28;20106;-77
2022/06/01 14:34:53;;;;;;;1.42;0.75;;;;;;;;;;5050253;28;20029;-78
2022/06/01 14:37:19;;;;;;;0.47;0.47;;;;;;;;;;5050219;28;20427;-77
2022/06/01 14:39:44;;;;;;;2.58;1.80;;;;;;;;;;5049592;28;20064;-76
2022/06/01 14:42:10;;;;;;;0.63;0.63;;;;;;;;;;5049986;28;20032;-76
2022/06/01 14:44:35;;;;;;;0.80;0.52;;;;;;;;;;5050093;28;20106;-78
2022/06/01 14:47:01;;;;;;;1.75;0.52;;;;;;;;;;5032274;28;20040;-78
2022/06/01 14:49:26;;;;;;;2.53;2.05;;;;;;;;;;5050916;28;20025;-75
2022/06/01 14:51:56;;;;;;;1.55;0.95;;;;;;;;;;5050717;28;20029;-79
2022/06/01 14:54:23;;;;;;;0.60;0.60;;;;;;;;;;5033300;28;20443;-78
2022/06/01 14:56:49;;;;;;;3.30;0.98;;;;;;;;;;5050152;28;20025;-81
2022/06/01 14:59:14;;;;;;;1.35;0.95;;;;;;;;;;5032272;28;20044;-75
2022/06/01 15:01:41;;;;;;;3.20;0.52;;;;;;;;;;5032262;28;20039;-77
2022/06/01 15:04:13;;;;;;;8.80;2.47;;;;;;;;;;5049292;28;20025;-76
2022/06/01 15:06:38;;;;;;;2.83;0.95;;;;;;;;;;5049830;28;20036;-76
2022/06/01 15:09:04;;;;;;;0.68;0.50;;;;;;;;;;5029956;28;20029;-76
2022/06/01 15:11:29;;;;;;;1.80;0.88;;;;;;;;;;5040178;28;20038;-79
2022/06/01 15:13:55;;;;;;;1.70;0.98;;;;;;;;;;5029643;28;20033;-77
2022/06/01 15:16:20;;;;;;;0.95;0.52;;;;;;;;;;5028547;28;20099;-76
2022/06/01 15:18:46;;;;;;;0.30;0.30;;;;;;;;;;5029815;28;20026;-78
2022/06/01 15:21:12;;;;;;;1.25;0.90;;;;;;;;;;5029361;28;20062;-75
2022/06/01 15:23:38;;;;;;;18.15;1.08;;;;;;;;;;5029629;28;20040;-76
2022/06/01 15:26:04;;;;;;;0.43;0.43;;;;;;;;;;5027759;28;20094;-73
2022/06/01 15:28:33;;;;;;;2.25;0.75;;;;;;;;;;5028356;28;20082;-79
2022/06/01 15:39:27;;;;;;;0.60;0.60;;;;;;;;;;5028024;28;20034;-78
2022/06/01 15:41:53;;;;;;;1.05;0.60;;;;;;;;;;5028544;28;20029;-79
2022/06/01 15:44:19;;;;;;;1.27;1.17;;;;;;;;;;5028242;28;20045;-77
2022/06/01 15:46:45;;;;;;;0.50;0.43;;;;;;;;;;5011096;28;20034;-77
2022/06/01 15:49:11;;;;;;;2.00;0.90;;;;;;;;;;5049266;28;20461;-78
2022/06/01 15:51:37;;;;;;;0.45;0.45;;;;;;;;;;5038711;28;20116;-77
2022/06/01 15:54:03;;;;;;;1.33;0.93;;;;;;;;;;5026428;28;20025;-78
2022/06/01 15:56:31;;;;;;;0.43;0.43;;;;;;;;;;5042762;28;20890;-77
2022/06/01 15:58:57;;;;;;;0.30;0.30;;;;;;;;;;5035085;28;20427;-74
2022/06/01 16:01:23;;;;;;;0.30;0.30;;;;;;;;;;5036335;28;20034;-74
2022/06/01 16:03:50;;;;;;;1.15;1.05;;;;;;;;;;5009890;28;20041;-76
2022/06/01 16:06:16;;;;;;;1.05;0.45;;;;;;;;;;5009183;28;20032;-78
2022/06/01 16:08:42;;;;;;;1.85;0.77;;;;;;;;;;5042371;28;20427;-75
2022/06/01 16:11:08;;;;;;;0.38;0.38;;;;;;;;;;5030779;28;20020;-77
2022/06/01 16:13:34;;;;;;;2.28;0.65;;;;;;;;;;5046888;28;20111;-76
2022/06/01 16:15:59;;;;;;;0.32;0.30;;;;;;;;;;5046202;28;20120;-77
2022/06/01 16:18:25;;;;;;;2.30;0.73;;;;;;;;;;5045454;28;20090;-75
2022/06/01 16:20:50;;;;;;;0.30;0.30;;;;;;;;;;5047041;28;20090;-76
2022/06/01 16:23:16;;;;;;;2.05;1.23;;;;;;;;;;5046234;28;20020;-76
2022/06/01 16:25:42;;;;;;;0.40;0.40;;;;;;;;;;5046096;28;20037;-74
2022/06/01 16:28:08;;;;;;;4.68;1.10;;;;;;;;;;5046143;28;20082;-76
2022/06/01 16:30:33;;;;;;;1.75;0.80;;;;;;;;;;5046031;28;20043;-76
2022/06/01 16:33:00;;;;;;;0.40;0.40;;;;;;;;;;5046126;28;20032;-75
2022/06/01 16:35:26;;;;;;;0.85;0.85;;;;;;;;;;5045329;28;20029;-76
2022/06/01 16:37:52;;;;;;;0.57;0.40;;;;;;;;;;5041512;28;20032;-75
2022/06/01 16:40:19;;;;;;;0.95;0.63;;;;;;;;;;5046823;28;20373;-73
2022/06/01 16:42:50;;;;;;;1.13;0.70;;;;;;;;;;5048181;28;20040;-74
2022/06/01 16:45:18;;;;;;;2.45;2.33;;;;;;;;;;5052083;28;20079;-75
2022/06/01 16:47:45;;;;;;;0.30;0.30;;;;;;;;;;5033498;28;20086;-74
2022/06/01 16:50:12;;;;;;;0.45;0.43;;;;;;;;;;5030351;28;20538;-76
2022/06/01 16:52:45;;;;;;;1.98;1.10;;;;;;;;;;5045322;28;20037;-73
2022/06/01 16:55:14;;;;;;;1.42;0.57;;;;;;;;;;5050345;28;20036;-79
2022/06/01 16:57:40;;;;;;;2.03;0.40;;;;;;;;;;5042312;28;20108;-77
2022/06/01 17:00:08;;;;;;;0.20;0.20;;;;;;;;;;5029366;28;20113;-76
2022/06/01 17:02:34;;;;;;;0.40;0.40;;;;;;;;;;5029890;28;20079;-75
2022/06/01 17:05:00;;;;;;;0.52;0.52;;;;;;;;;;5042318;28;20037;-77
2022/06/01 17:07:27;;;;;;;1.70;1.60;;;;;;;;;;5038660;28;20067;-76
2022/06/01 17:09:53;;;;;;;0.20;0.20;;;;;;;;;;5046917;28;20037;-74
2022/06/01 17:12:19;;;;;;;0.25;0.25;;;;;;;;;;5050994;28;20124;-77
2022/06/01 17:14:45;;;;;;;4.20;1.65;;;;;;;;;;5051317;28;20362;-74
2022/06/01 17:17:13;;;;;;;0.30;0.30;;;;;;;;;;5051147;28;20146;-78
2022/06/01 17:19:39;;;;;;;0.30;0.30;;;;;;;;;;5051634;28;20043;-77
2022/06/01 17:22:04;;;;;;;0.40;0.40;;;;;;;;;;5050893;28;20029;-76
2022/06/01 17:24:30;;;;;;;1.70;0.88;;;;;;;;;;5048316;28;20562;-75
2022/06/01 17:26:55;;;;;;;2.05;0.70;;;;;;;;;;5049781;28;20078;-74
2022/06/01 17:29:21;;;;;;;0.30;0.30;;;;;;;;;;5050387;28;20069;-77
2022/06/01 17:31:47;;;;;;;0.57;0.52;;;;;;;;;;5050165;28;20495;-78
2022/06/01 17:34:12;;;;;;;0.57;0.40;;;;;;;;;;5049433;28;20491;-76
2022/06/01 17:36:38;;;;;;;0.28;0.28;;;;;;;;;;5049595;28;20044;-78
2022/06/01 17:39:04;;;;;;;0.20;0.20;;;;;;;;;;5050944;28;20037;-77
2022/06/01 17:41:30;;;;;;;0.40;0.30;;;;;;;;;;5050759;28;20025;-77
2022/06/01 17:43:55;;;;;;;8.32;0.82;;;;;;;;;;5050845;28;20503;-77
2022/06/01 17:46:21;;;;;;;0.55;0.38;;;;;;;;;;5049166;28;20086;-75